sensor_id;sensor_type;location;lat;lon;timestamp;P1;durP1;ratioP1;P2;durP2;ratioP2
64225;SDS011;50545;56.064;26.178;2023-07-31T00:00:54;1.85;;;1.73;;
64225;SDS011;50545;56.064;26.178;2023-07-31T00:03:21;2.22;;;1.80;;
64225;SDS011;50545;56.064;26.178;2023-07-31T00:05:49;1.92;;;1.80;;
64225;SDS011;50545;56.064;26.178;2023-07-31T00:08:16;2.40;;;2.00;;
64225;SDS011;50545;56.064;26.178;2023-07-31T00:10:44;2.15;;;1.90;;
64225;SDS011;50545;56.064;26.178;2023-07-31T00:13:11;2.97;;;2.10;;
64225;SDS011;50545;56.064;26.178;2023-07-31T00:15:39;2.28;;;1.90;;
64225;SDS011;50545;56.064;26.178;2023-07-31T00:18:06;2.35;;;1.83;;
64225;SDS011;50545;56.064;26.178;2023-07-31T00:20:34;2.03;;;1.70;;
64225;SDS011;50545;56.064;26.178;2023-07-31T00:23:01;2.47;;;1.88;;
64225;SDS011;50545;56.064;26.178;2023-07-31T00:25:29;2.17;;;1.88;;
64225;SDS011;50545;56.064;26.178;2023-07-31T00:27:56;2.63;;;2.00;;
64225;SDS011;50545;56.064;26.178;2023-07-31T00:30:24;2.58;;;1.90;;
64225;SDS011;50545;56.064;26.178;2023-07-31T00:32:53;1.60;;;1.48;;
64225;SDS011;50545;56.064;26.178;2023-07-31T00:35:21;2.78;;;1.95;;
64225;SDS011;50545;56.064;26.178;2023-07-31T00:37:48;2.50;;;2.00;;
64225;SDS011;50545;56.064;26.178;2023-07-31T00:40:16;1.90;;;1.70;;
64225;SDS011;50545;56.064;26.178;2023-07-31T00:42:43;2.85;;;1.90;;
64225;SDS011;50545;56.064;26.178;2023-07-31T00:45:11;2.13;;;1.92;;
64225;SDS011;50545;56.064;26.178;2023-07-31T00:47:38;2.00;;;1.77;;
64225;SDS011;50545;56.064;26.178;2023-07-31T00:50:06;2.55;;;2.00;;
64225;SDS011;50545;56.064;26.178;2023-07-31T00:52:35;3.22;;;2.05;;
64225;SDS011;50545;56.064;26.178;2023-07-31T00:55:03;2.00;;;1.77;;
64225;SDS011;50545;56.064;26.178;2023-07-31T00:57:32;2.10;;;1.90;;
64225;SDS011;50545;56.064;26.178;2023-07-31T01:00:00;2.13;;;1.85;;
64225;SDS011;50545;56.064;26.178;2023-07-31T01:02:27;2.38;;;2.00;;
64225;SDS011;50545;56.064;26.178;2023-07-31T01:04:55;1.73;;;1.63;;
64225;SDS011;50545;56.064;26.178;2023-07-31T01:07:37;2.25;;;2.00;;
64225;SDS011;50545;56.064;26.178;2023-07-31T01:10:18;2.13;;;1.92;;
64225;SDS011;50545;56.064;26.178;2023-07-31T01:12:50;2.80;;;2.00;;
64225;SDS011;50545;56.064;26.178;2023-07-31T01:15:19;2.07;;;1.67;;
64225;SDS011;50545;56.064;26.178;2023-07-31T01:17:48;2.10;;;1.88;;
64225;SDS011;50545;56.064;26.178;2023-07-31T01:20:20;2.25;;;1.83;;
64225;SDS011;50545;56.064;26.178;2023-07-31T01:28:20;3.33;;;2.17;;
64225;SDS011;50545;56.064;26.178;2023-07-31T01:30:55;3.28;;;2.05;;
64225;SDS011;50545;56.064;26.178;2023-07-31T01:33:26;2.20;;;1.90;;
64225;SDS011;50545;56.064;26.178;2023-07-31T01:35:54;2.25;;;1.92;;
64225;SDS011;50545;56.064;26.178;2023-07-31T01:38:23;1.90;;;1.65;;
64225;SDS011;50545;56.064;26.178;2023-07-31T01:40:50;2.72;;;1.98;;
64225;SDS011;50545;56.064;26.178;2023-07-31T01:43:19;3.08;;;2.03;;
64225;SDS011;50545;56.064;26.178;2023-07-31T01:45:47;1.75;;;1.63;;
64225;SDS011;50545;56.064;26.178;2023-07-31T01:48:14;2.25;;;1.85;;
64225;SDS011;50545;56.064;26.178;2023-07-31T01:50:42;2.33;;;1.80;;
64225;SDS011;50545;56.064;26.178;2023-07-31T01:53:09;2.00;;;1.80;;
64225;SDS011;50545;56.064;26.178;2023-07-31T01:55:38;2.72;;;1.80;;
64225;SDS011;50545;56.064;26.178;2023-07-31T01:58:06;2.30;;;1.88;;
64225;SDS011;50545;56.064;26.178;2023-07-31T02:00:34;1.90;;;1.70;;
64225;SDS011;50545;56.064;26.178;2023-07-31T02:03:01;1.67;;;1.52;;
64225;SDS011;50545;56.064;26.178;2023-07-31T02:05:29;1.85;;;1.52;;
64225;SDS011;50545;56.064;26.178;2023-07-31T02:07:56;2.58;;;1.60;;
64225;SDS011;50545;56.064;26.178;2023-07-31T02:10:24;1.40;;;1.30;;
64225;SDS011;50545;56.064;26.178;2023-07-31T02:12:51;2.08;;;1.70;;
64225;SDS011;50545;56.064;26.178;2023-07-31T02:15:19;2.03;;;1.63;;
64225;SDS011;50545;56.064;26.178;2023-07-31T02:17:47;2.55;;;1.70;;
64225;SDS011;50545;56.064;26.178;2023-07-31T02:20:15;1.95;;;1.70;;
64225;SDS011;50545;56.064;26.178;2023-07-31T02:22:42;1.70;;;1.60;;
64225;SDS011;50545;56.064;26.178;2023-07-31T02:25:10;1.95;;;1.70;;
64225;SDS011;50545;56.064;26.178;2023-07-31T02:27:37;1.85;;;1.63;;
64225;SDS011;50545;56.064;26.178;2023-07-31T02:30:05;1.63;;;1.50;;
64225;SDS011;50545;56.064;26.178;2023-07-31T02:32:33;1.73;;;1.45;;
64225;SDS011;50545;56.064;26.178;2023-07-31T02:35:01;1.50;;;1.40;;
64225;SDS011;50545;56.064;26.178;2023-07-31T02:37:28;1.55;;;1.45;;
64225;SDS011;50545;56.064;26.178;2023-07-31T02:39:56;1.65;;;1.55;;
64225;SDS011;50545;56.064;26.178;2023-07-31T02:42:23;1.98;;;1.70;;
64225;SDS011;50545;56.064;26.178;2023-07-31T02:44:51;1.90;;;1.73;;
64225;SDS011;50545;56.064;26.178;2023-07-31T02:47:22;3.03;;;1.90;;
64225;SDS011;50545;56.064;26.178;2023-07-31T02:49:50;2.05;;;1.80;;
64225;SDS011;50545;56.064;26.178;2023-07-31T02:52:17;1.75;;;1.63;;
64225;SDS011;50545;56.064;26.178;2023-07-31T02:54:45;1.60;;;1.50;;
64225;SDS011;50545;56.064;26.178;2023-07-31T02:57:12;1.52;;;1.38;;
64225;SDS011;50545;56.064;26.178;2023-07-31T02:59:40;1.40;;;1.30;;
64225;SDS011;50545;56.064;26.178;2023-07-31T03:02:07;1.38;;;1.27;;
64225;SDS011;50545;56.064;26.178;2023-07-31T03:04:35;1.27;;;1.17;;
64225;SDS011;50545;56.064;26.178;2023-07-31T03:07:02;1.20;;;1.13;;
64225;SDS011;50545;56.064;26.178;2023-07-31T03:09:30;0.95;;;0.95;;
64225;SDS011;50545;56.064;26.178;2023-07-31T03:11:58;2.08;;;1.33;;
64225;SDS011;50545;56.064;26.178;2023-07-31T03:14:25;1.60;;;1.30;;
64225;SDS011;50545;56.064;26.178;2023-07-31T03:16:53;1.75;;;1.55;;
64225;SDS011;50545;56.064;26.178;2023-07-31T03:19:21;1.50;;;1.40;;
64225;SDS011;50545;56.064;26.178;2023-07-31T03:21:48;1.58;;;1.35;;
64225;SDS011;50545;56.064;26.178;2023-07-31T03:24:16;1.83;;;1.45;;
64225;SDS011;50545;56.064;26.178;2023-07-31T03:26:43;1.55;;;1.45;;
64225;SDS011;50545;56.064;26.178;2023-07-31T03:29:11;1.30;;;1.20;;
64225;SDS011;50545;56.064;26.178;2023-07-31T03:31:38;1.30;;;1.20;;
64225;SDS011;50545;56.064;26.178;2023-07-31T03:34:06;1.40;;;1.30;;
64225;SDS011;50545;56.064;26.178;2023-07-31T03:36:33;0.90;;;0.90;;
64225;SDS011;50545;56.064;26.178;2023-07-31T03:39:01;1.15;;;1.08;;
64225;SDS011;50545;56.064;26.178;2023-07-31T03:41:28;0.98;;;0.98;;
64225;SDS011;50545;56.064;26.178;2023-07-31T03:43:56;0.95;;;0.95;;
64225;SDS011;50545;56.064;26.178;2023-07-31T03:46:24;1.17;;;1.10;;
64225;SDS011;50545;56.064;26.178;2023-07-31T03:48:51;1.10;;;1.00;;
64225;SDS011;50545;56.064;26.178;2023-07-31T03:51:19;1.40;;;1.30;;
64225;SDS011;50545;56.064;26.178;2023-07-31T03:53:47;1.45;;;1.35;;
64225;SDS011;50545;56.064;26.178;2023-07-31T03:56:14;2.22;;;1.33;;
64225;SDS011;50545;56.064;26.178;2023-07-31T03:58:42;1.42;;;1.10;;
64225;SDS011;50545;56.064;26.178;2023-07-31T04:01:09;1.55;;;1.45;;
64225;SDS011;50545;56.064;26.178;2023-07-31T04:03:37;1.55;;;1.25;;
64225;SDS011;50545;56.064;26.178;2023-07-31T04:06:04;1.30;;;1.20;;
64225;SDS011;50545;56.064;26.178;2023-07-31T04:08:33;1.40;;;1.30;;
64225;SDS011;50545;56.064;26.178;2023-07-31T04:11:01;1.40;;;1.30;;
64225;SDS011;50545;56.064;26.178;2023-07-31T04:13:29;1.40;;;1.30;;
64225;SDS011;50545;56.064;26.178;2023-07-31T04:15:56;1.50;;;1.40;;
64225;SDS011;50545;56.064;26.178;2023-07-31T04:18:24;1.48;;;1.38;;
64225;SDS011;50545;56.064;26.178;2023-07-31T04:20:52;1.85;;;1.50;;
64225;SDS011;50545;56.064;26.178;2023-07-31T04:23:21;1.60;;;1.50;;
64225;SDS011;50545;56.064;26.178;2023-07-31T04:25:48;2.53;;;1.65;;
64225;SDS011;50545;56.064;26.178;2023-07-31T04:28:16;2.22;;;1.65;;
64225;SDS011;50545;56.064;26.178;2023-07-31T04:30:43;2.22;;;1.92;;
64225;SDS011;50545;56.064;26.178;2023-07-31T04:33:14;2.47;;;1.92;;
64225;SDS011;50545;56.064;26.178;2023-07-31T04:35:41;2.58;;;1.85;;
64225;SDS011;50545;56.064;26.178;2023-07-31T04:38:15;2.85;;;2.00;;
64225;SDS011;50545;56.064;26.178;2023-07-31T04:40:42;2.78;;;1.95;;
64225;SDS011;50545;56.064;26.178;2023-07-31T04:43:10;2.45;;;1.83;;
64225;SDS011;50545;56.064;26.178;2023-07-31T04:45:37;2.95;;;2.05;;
64225;SDS011;50545;56.064;26.178;2023-07-31T04:48:05;2.13;;;1.83;;
64225;SDS011;50545;56.064;26.178;2023-07-31T04:50:32;2.65;;;1.90;;
64225;SDS011;50545;56.064;26.178;2023-07-31T04:53:02;2.03;;;1.83;;
64225;SDS011;50545;56.064;26.178;2023-07-31T04:55:30;2.17;;;1.90;;
64225;SDS011;50545;56.064;26.178;2023-07-31T04:57:58;2.13;;;1.92;;
64225;SDS011;50545;56.064;26.178;2023-07-31T05:00:26;2.30;;;1.95;;
64225;SDS011;50545;56.064;26.178;2023-07-31T05:02:53;2.58;;;1.90;;
64225;SDS011;50545;56.064;26.178;2023-07-31T05:05:21;2.72;;;2.10;;
64225;SDS011;50545;56.064;26.178;2023-07-31T05:07:49;1.88;;;1.67;;
64225;SDS011;50545;56.064;26.178;2023-07-31T05:10:16;2.40;;;1.90;;
64225;SDS011;50545;56.064;26.178;2023-07-31T05:12:44;3.30;;;2.10;;
64225;SDS011;50545;56.064;26.178;2023-07-31T05:15:11;2.80;;;2.13;;
64225;SDS011;50545;56.064;26.178;2023-07-31T05:17:39;3.28;;;2.08;;
64225;SDS011;50545;56.064;26.178;2023-07-31T05:20:07;2.47;;;2.08;;
64225;SDS011;50545;56.064;26.178;2023-07-31T05:22:35;2.42;;;1.90;;
64225;SDS011;50545;56.064;26.178;2023-07-31T05:25:03;2.63;;;2.10;;
64225;SDS011;50545;56.064;26.178;2023-07-31T05:27:31;2.63;;;1.85;;
64225;SDS011;50545;56.064;26.178;2023-07-31T05:29:59;2.35;;;1.92;;
64225;SDS011;50545;56.064;26.178;2023-07-31T05:32:27;3.65;;;2.10;;
64225;SDS011;50545;56.064;26.178;2023-07-31T05:34:54;3.22;;;2.15;;
64225;SDS011;50545;56.064;26.178;2023-07-31T05:37:22;2.33;;;1.92;;
64225;SDS011;50545;56.064;26.178;2023-07-31T05:39:50;2.80;;;2.00;;
64225;SDS011;50545;56.064;26.178;2023-07-31T05:42:18;2.30;;;2.08;;
64225;SDS011;50545;56.064;26.178;2023-07-31T05:44:46;2.67;;;2.20;;
64225;SDS011;50545;56.064;26.178;2023-07-31T05:47:13;3.22;;;2.20;;
64225;SDS011;50545;56.064;26.178;2023-07-31T05:49:41;2.85;;;2.00;;
64225;SDS011;50545;56.064;26.178;2023-07-31T05:52:08;2.90;;;2.08;;
64225;SDS011;50545;56.064;26.178;2023-07-31T05:54:36;2.38;;;2.00;;
64225;SDS011;50545;56.064;26.178;2023-07-31T05:57:03;3.20;;;2.00;;
64225;SDS011;50545;56.064;26.178;2023-07-31T05:59:31;2.75;;;1.90;;
64225;SDS011;50545;56.064;26.178;2023-07-31T06:01:59;2.00;;;1.80;;
64225;SDS011;50545;56.064;26.178;2023-07-31T06:04:27;3.10;;;2.03;;
64225;SDS011;50545;56.064;26.178;2023-07-31T06:06:55;2.85;;;2.03;;
64225;SDS011;50545;56.064;26.178;2023-07-31T06:09:23;2.90;;;2.17;;
64225;SDS011;50545;56.064;26.178;2023-07-31T06:11:50;3.83;;;2.13;;
64225;SDS011;50545;56.064;26.178;2023-07-31T06:14:18;3.88;;;2.47;;
64225;SDS011;50545;56.064;26.178;2023-07-31T06:16:46;2.58;;;1.80;;
64225;SDS011;50545;56.064;26.178;2023-07-31T06:19:13;3.90;;;2.10;;
64225;SDS011;50545;56.064;26.178;2023-07-31T06:21:41;2.88;;;2.20;;
64225;SDS011;50545;56.064;26.178;2023-07-31T06:24:10;2.25;;;1.77;;
64225;SDS011;50545;56.064;26.178;2023-07-31T06:26:38;2.67;;;1.88;;
64225;SDS011;50545;56.064;26.178;2023-07-31T06:29:07;4.18;;;2.60;;
64225;SDS011;50545;56.064;26.178;2023-07-31T06:31:34;3.20;;;2.30;;
64225;SDS011;50545;56.064;26.178;2023-07-31T06:34:02;2.58;;;2.22;;
64225;SDS011;50545;56.064;26.178;2023-07-31T06:36:29;3.13;;;2.17;;
64225;SDS011;50545;56.064;26.178;2023-07-31T06:38:57;2.05;;;1.67;;
64225;SDS011;50545;56.064;26.178;2023-07-31T06:41:25;2.75;;;2.15;;
64225;SDS011;50545;56.064;26.178;2023-07-31T06:43:52;2.88;;;2.30;;
64225;SDS011;50545;56.064;26.178;2023-07-31T06:46:20;3.22;;;2.03;;
64225;SDS011;50545;56.064;26.178;2023-07-31T06:48:48;3.50;;;2.50;;
64225;SDS011;50545;56.064;26.178;2023-07-31T06:51:16;3.92;;;1.98;;
64225;SDS011;50545;56.064;26.178;2023-07-31T06:53:43;2.75;;;2.08;;
64225;SDS011;50545;56.064;26.178;2023-07-31T06:56:12;3.92;;;2.30;;
64225;SDS011;50545;56.064;26.178;2023-07-31T06:58:39;2.63;;;1.75;;
64225;SDS011;50545;56.064;26.178;2023-07-31T07:01:07;3.15;;;2.30;;
64225;SDS011;50545;56.064;26.178;2023-07-31T07:03:34;3.55;;;1.90;;
64225;SDS011;50545;56.064;26.178;2023-07-31T07:06:02;4.05;;;2.20;;
64225;SDS011;50545;56.064;26.178;2023-07-31T07:08:30;4.00;;;2.45;;
64225;SDS011;50545;56.064;26.178;2023-07-31T07:10:57;2.20;;;1.88;;
64225;SDS011;50545;56.064;26.178;2023-07-31T07:13:25;3.33;;;2.08;;
64225;SDS011;50545;56.064;26.178;2023-07-31T07:15:52;2.03;;;1.83;;
64225;SDS011;50545;56.064;26.178;2023-07-31T07:18:20;2.10;;;1.83;;
64225;SDS011;50545;56.064;26.178;2023-07-31T07:20:49;2.35;;;1.70;;
64225;SDS011;50545;56.064;26.178;2023-07-31T07:23:18;2.72;;;2.15;;
64225;SDS011;50545;56.064;26.178;2023-07-31T07:25:46;2.10;;;1.90;;
64225;SDS011;50545;56.064;26.178;2023-07-31T07:28:14;2.42;;;2.00;;
64225;SDS011;50545;56.064;26.178;2023-07-31T07:30:42;2.65;;;1.92;;
64225;SDS011;50545;56.064;26.178;2023-07-31T07:33:09;2.67;;;1.90;;
64225;SDS011;50545;56.064;26.178;2023-07-31T07:35:38;2.10;;;1.90;;
64225;SDS011;50545;56.064;26.178;2023-07-31T07:38:05;4.57;;;2.00;;
64225;SDS011;50545;56.064;26.178;2023-07-31T07:40:37;2.33;;;1.65;;
64225;SDS011;50545;56.064;26.178;2023-07-31T07:43:06;2.55;;;2.00;;
64225;SDS011;50545;56.064;26.178;2023-07-31T07:45:33;2.30;;;1.90;;
64225;SDS011;50545;56.064;26.178;2023-07-31T07:48:01;2.25;;;1.83;;
64225;SDS011;50545;56.064;26.178;2023-07-31T07:50:28;3.70;;;2.10;;
64225;SDS011;50545;56.064;26.178;2023-07-31T07:52:56;2.33;;;1.90;;
64225;SDS011;50545;56.064;26.178;2023-07-31T07:55:23;2.45;;;1.70;;
64225;SDS011;50545;56.064;26.178;2023-07-31T07:57:51;2.75;;;1.90;;
64225;SDS011;50545;56.064;26.178;2023-07-31T08:00:18;1.73;;;1.60;;
64225;SDS011;50545;56.064;26.178;2023-07-31T08:02:46;2.25;;;1.77;;
64225;SDS011;50545;56.064;26.178;2023-07-31T08:05:14;2.22;;;1.70;;
64225;SDS011;50545;56.064;26.178;2023-07-31T08:07:41;2.33;;;1.73;;
64225;SDS011;50545;56.064;26.178;2023-07-31T08:10:09;2.47;;;1.77;;
64225;SDS011;50545;56.064;26.178;2023-07-31T08:12:36;2.60;;;1.90;;
64225;SDS011;50545;56.064;26.178;2023-07-31T08:15:04;2.35;;;1.75;;
64225;SDS011;50545;56.064;26.178;2023-07-31T08:17:32;2.03;;;1.65;;
64225;SDS011;50545;56.064;26.178;2023-07-31T08:19:59;2.40;;;1.80;;
64225;SDS011;50545;56.064;26.178;2023-07-31T08:22:27;2.60;;;1.80;;
64225;SDS011;50545;56.064;26.178;2023-07-31T08:24:54;3.72;;;1.98;;
64225;SDS011;50545;56.064;26.178;2023-07-31T08:27:22;2.67;;;1.90;;
64225;SDS011;50545;56.064;26.178;2023-07-31T08:29:49;2.05;;;1.67;;
64225;SDS011;50545;56.064;26.178;2023-07-31T08:32:19;3.37;;;2.03;;
64225;SDS011;50545;56.064;26.178;2023-07-31T08:34:47;2.50;;;1.40;;
64225;SDS011;50545;56.064;26.178;2023-07-31T08:37:14;3.05;;;1.70;;
64225;SDS011;50545;56.064;26.178;2023-07-31T08:39:41;2.50;;;1.95;;
64225;SDS011;50545;56.064;26.178;2023-07-31T08:42:09;2.05;;;1.80;;
64225;SDS011;50545;56.064;26.178;2023-07-31T08:44:36;2.75;;;1.67;;
64225;SDS011;50545;56.064;26.178;2023-07-31T08:47:05;1.90;;;1.70;;
64225;SDS011;50545;56.064;26.178;2023-07-31T08:49:33;2.05;;;1.60;;
64225;SDS011;50545;56.064;26.178;2023-07-31T08:52:02;3.28;;;1.60;;
64225;SDS011;50545;56.064;26.178;2023-07-31T08:54:30;2.58;;;1.70;;
64225;SDS011;50545;56.064;26.178;2023-07-31T08:57:00;2.03;;;1.60;;
64225;SDS011;50545;56.064;26.178;2023-07-31T08:59:29;1.88;;;1.60;;
64225;SDS011;50545;56.064;26.178;2023-07-31T09:01:59;2.10;;;1.60;;
64225;SDS011;50545;56.064;26.178;2023-07-31T09:04:33;1.85;;;1.60;;
64225;SDS011;50545;56.064;26.178;2023-07-31T09:07:01;1.67;;;1.55;;
64225;SDS011;50545;56.064;26.178;2023-07-31T09:09:31;1.90;;;1.55;;
64225;SDS011;50545;56.064;26.178;2023-07-31T09:11:59;3.05;;;1.52;;
64225;SDS011;50545;56.064;26.178;2023-07-31T09:14:26;1.90;;;1.45;;
64225;SDS011;50545;56.064;26.178;2023-07-31T09:16:55;1.48;;;1.25;;
64225;SDS011;50545;56.064;26.178;2023-07-31T09:19:25;2.28;;;1.27;;
64225;SDS011;50545;56.064;26.178;2023-07-31T09:21:54;2.50;;;1.73;;
64225;SDS011;50545;56.064;26.178;2023-07-31T09:24:29;3.42;;;1.70;;
64225;SDS011;50545;56.064;26.178;2023-07-31T09:26:58;2.47;;;1.58;;
64225;SDS011;50545;56.064;26.178;2023-07-31T09:29:27;2.85;;;1.85;;
64225;SDS011;50545;56.064;26.178;2023-07-31T09:31:56;2.37;;;1.50;;
64225;SDS011;50545;56.064;26.178;2023-07-31T09:34:37;1.52;;;1.35;;
64225;SDS011;50545;56.064;26.178;2023-07-31T09:37:07;3.53;;;1.90;;
64225;SDS011;50545;56.064;26.178;2023-07-31T09:39:45;2.78;;;2.00;;
64225;SDS011;50545;56.064;26.178;2023-07-31T09:42:14;1.67;;;1.58;;
64225;SDS011;50545;56.064;26.178;2023-07-31T09:44:50;2.40;;;1.70;;
64225;SDS011;50545;56.064;26.178;2023-07-31T09:47:23;3.08;;;1.75;;
64225;SDS011;50545;56.064;26.178;2023-07-31T09:49:52;3.42;;;1.80;;
64225;SDS011;50545;56.064;26.178;2023-07-31T09:52:20;2.63;;;1.70;;
64225;SDS011;50545;56.064;26.178;2023-07-31T09:54:47;2.45;;;1.88;;
64225;SDS011;50545;56.064;26.178;2023-07-31T09:57:15;2.42;;;1.60;;
64225;SDS011;50545;56.064;26.178;2023-07-31T09:59:45;2.60;;;1.80;;
64225;SDS011;50545;56.064;26.178;2023-07-31T10:02:15;2.97;;;1.60;;
64225;SDS011;50545;56.064;26.178;2023-07-31T10:04:50;2.35;;;1.63;;
64225;SDS011;50545;56.064;26.178;2023-07-31T10:07:18;2.70;;;2.03;;
64225;SDS011;50545;56.064;26.178;2023-07-31T10:09:50;3.10;;;1.75;;
64225;SDS011;50545;56.064;26.178;2023-07-31T10:12:21;2.58;;;2.03;;
64225;SDS011;50545;56.064;26.178;2023-07-31T10:14:52;2.28;;;1.60;;
64225;SDS011;50545;56.064;26.178;2023-07-31T10:17:25;2.27;;;1.80;;
64225;SDS011;50545;56.064;26.178;2023-07-31T10:19:53;2.97;;;1.83;;
64225;SDS011;50545;56.064;26.178;2023-07-31T10:22:21;3.95;;;1.80;;
64225;SDS011;50545;56.064;26.178;2023-07-31T10:24:49;2.75;;;1.83;;
64225;SDS011;50545;56.064;26.178;2023-07-31T10:27:19;3.33;;;2.25;;
64225;SDS011;50545;56.064;26.178;2023-07-31T10:29:46;3.97;;;2.40;;
64225;SDS011;50545;56.064;26.178;2023-07-31T10:32:16;1.70;;;1.60;;
64225;SDS011;50545;56.064;26.178;2023-07-31T10:34:44;2.58;;;1.90;;
64225;SDS011;50545;56.064;26.178;2023-07-31T10:40:04;2.55;;;1.88;;
64225;SDS011;50545;56.064;26.178;2023-07-31T10:45:06;3.92;;;2.35;;
64225;SDS011;50545;56.064;26.178;2023-07-31T10:47:37;2.40;;;1.90;;
64225;SDS011;50545;56.064;26.178;2023-07-31T10:50:27;2.60;;;2.00;;
64225;SDS011;50545;56.064;26.178;2023-07-31T10:52:54;2.80;;;2.13;;
64225;SDS011;50545;56.064;26.178;2023-07-31T10:57:54;3.20;;;2.15;;
64225;SDS011;50545;56.064;26.178;2023-07-31T11:00:24;2.93;;;2.13;;
64225;SDS011;50545;56.064;26.178;2023-07-31T11:03:16;3.42;;;2.05;;
64225;SDS011;50545;56.064;26.178;2023-07-31T11:06:03;3.33;;;1.90;;
64225;SDS011;50545;56.064;26.178;2023-07-31T11:08:35;2.50;;;1.95;;
64225;SDS011;50545;56.064;26.178;2023-07-31T11:11:09;2.53;;;1.83;;
64225;SDS011;50545;56.064;26.178;2023-07-31T11:13:50;2.53;;;1.90;;
64225;SDS011;50545;56.064;26.178;2023-07-31T11:16:20;3.42;;;2.35;;
64225;SDS011;50545;56.064;26.178;2023-07-31T11:18:51;2.80;;;1.80;;
64225;SDS011;50545;56.064;26.178;2023-07-31T11:21:21;3.72;;;2.35;;
64225;SDS011;50545;56.064;26.178;2023-07-31T11:23:51;3.42;;;2.28;;
64225;SDS011;50545;56.064;26.178;2023-07-31T11:29:20;4.03;;;2.50;;
64225;SDS011;50545;56.064;26.178;2023-07-31T11:31:55;2.83;;;1.88;;
64225;SDS011;50545;56.064;26.178;2023-07-31T11:34:23;3.92;;;2.30;;
64225;SDS011;50545;56.064;26.178;2023-07-31T11:36:56;3.28;;;2.20;;
64225;SDS011;50545;56.064;26.178;2023-07-31T11:39:24;2.53;;;1.88;;
64225;SDS011;50545;56.064;26.178;2023-07-31T11:41:51;3.15;;;2.33;;
64225;SDS011;50545;56.064;26.178;2023-07-31T11:44:19;1.75;;;1.60;;
64225;SDS011;50545;56.064;26.178;2023-07-31T11:46:56;3.13;;;2.10;;
64225;SDS011;50545;56.064;26.178;2023-07-31T11:49:24;2.50;;;2.05;;
64225;SDS011;50545;56.064;26.178;2023-07-31T11:51:53;3.38;;;2.15;;
64225;SDS011;50545;56.064;26.178;2023-07-31T11:54:20;3.15;;;1.98;;
64225;SDS011;50545;56.064;26.178;2023-07-31T11:56:48;3.80;;;2.40;;
64225;SDS011;50545;56.064;26.178;2023-07-31T11:59:17;3.03;;;2.13;;
64225;SDS011;50545;56.064;26.178;2023-07-31T12:01:45;3.13;;;2.05;;
64225;SDS011;50545;56.064;26.178;2023-07-31T12:04:13;3.63;;;2.40;;
64225;SDS011;50545;56.064;26.178;2023-07-31T12:06:41;3.60;;;2.30;;
64225;SDS011;50545;56.064;26.178;2023-07-31T12:09:09;3.35;;;2.20;;
64225;SDS011;50545;56.064;26.178;2023-07-31T12:11:48;2.72;;;1.90;;
64225;SDS011;50545;56.064;26.178;2023-07-31T12:14:19;4.68;;;2.80;;
64225;SDS011;50545;56.064;26.178;2023-07-31T12:16:54;4.60;;;2.67;;
64225;SDS011;50545;56.064;26.178;2023-07-31T12:19:23;3.05;;;2.40;;
64225;SDS011;50545;56.064;26.178;2023-07-31T12:21:54;2.97;;;2.10;;
64225;SDS011;50545;56.064;26.178;2023-07-31T12:24:22;3.70;;;2.42;;
64225;SDS011;50545;56.064;26.178;2023-07-31T12:26:50;4.10;;;2.50;;
64225;SDS011;50545;56.064;26.178;2023-07-31T12:29:19;4.55;;;2.60;;
64225;SDS011;50545;56.064;26.178;2023-07-31T12:31:47;3.53;;;2.33;;
64225;SDS011;50545;56.064;26.178;2023-07-31T12:34:18;3.53;;;2.13;;
64225;SDS011;50545;56.064;26.178;2023-07-31T12:36:48;3.97;;;2.35;;
64225;SDS011;50545;56.064;26.178;2023-07-31T12:39:15;3.47;;;2.15;;
64225;SDS011;50545;56.064;26.178;2023-07-31T12:41:43;3.30;;;2.20;;
64225;SDS011;50545;56.064;26.178;2023-07-31T12:44:10;3.08;;;2.33;;
64225;SDS011;50545;56.064;26.178;2023-07-31T12:46:38;4.43;;;2.38;;
64225;SDS011;50545;56.064;26.178;2023-07-31T12:49:06;3.00;;;2.13;;
64225;SDS011;50545;56.064;26.178;2023-07-31T12:51:34;4.32;;;2.85;;
64225;SDS011;50545;56.064;26.178;2023-07-31T12:54:01;3.60;;;2.30;;
64225;SDS011;50545;56.064;26.178;2023-07-31T12:56:29;3.90;;;2.40;;
64225;SDS011;50545;56.064;26.178;2023-07-31T12:58:56;2.35;;;2.13;;
64225;SDS011;50545;56.064;26.178;2023-07-31T13:01:24;4.25;;;2.63;;
64225;SDS011;50545;56.064;26.178;2023-07-31T13:03:52;4.00;;;2.72;;
64225;SDS011;50545;56.064;26.178;2023-07-31T13:06:19;2.90;;;2.30;;
64225;SDS011;50545;56.064;26.178;2023-07-31T13:08:47;2.65;;;2.08;;
64225;SDS011;50545;56.064;26.178;2023-07-31T13:11:14;2.17;;;1.85;;
64225;SDS011;50545;56.064;26.178;2023-07-31T13:13:42;3.30;;;1.98;;
64225;SDS011;50545;56.064;26.178;2023-07-31T13:16:10;2.67;;;1.88;;
64225;SDS011;50545;56.064;26.178;2023-07-31T13:18:37;2.13;;;1.73;;
64225;SDS011;50545;56.064;26.178;2023-07-31T13:21:05;4.28;;;1.80;;
64225;SDS011;50545;56.064;26.178;2023-07-31T13:23:32;1.95;;;1.75;;
64225;SDS011;50545;56.064;26.178;2023-07-31T13:26:00;2.53;;;1.88;;
64225;SDS011;50545;56.064;26.178;2023-07-31T13:28:27;2.42;;;1.95;;
64225;SDS011;50545;56.064;26.178;2023-07-31T13:30:55;1.98;;;1.63;;
64225;SDS011;50545;56.064;26.178;2023-07-31T13:33:23;2.47;;;1.88;;
64225;SDS011;50545;56.064;26.178;2023-07-31T13:36:05;1.90;;;1.67;;
64225;SDS011;50545;56.064;26.178;2023-07-31T13:38:33;2.30;;;1.85;;
64225;SDS011;50545;56.064;26.178;2023-07-31T13:41:00;3.90;;;1.70;;
64225;SDS011;50545;56.064;26.178;2023-07-31T13:43:28;1.85;;;1.67;;
64225;SDS011;50545;56.064;26.178;2023-07-31T13:45:56;2.83;;;2.00;;
64225;SDS011;50545;56.064;26.178;2023-07-31T13:48:23;3.25;;;1.90;;
64225;SDS011;50545;56.064;26.178;2023-07-31T13:50:51;2.65;;;1.95;;
64225;SDS011;50545;56.064;26.178;2023-07-31T13:53:18;2.80;;;1.80;;
64225;SDS011;50545;56.064;26.178;2023-07-31T13:55:46;2.63;;;2.03;;
64225;SDS011;50545;56.064;26.178;2023-07-31T13:58:16;2.45;;;2.03;;
64225;SDS011;50545;56.064;26.178;2023-07-31T14:00:44;2.83;;;1.83;;
64225;SDS011;50545;56.064;26.178;2023-07-31T14:03:12;2.15;;;1.80;;
64225;SDS011;50545;56.064;26.178;2023-07-31T14:05:39;2.78;;;1.90;;
64225;SDS011;50545;56.064;26.178;2023-07-31T14:08:07;3.03;;;1.77;;
64225;SDS011;50545;56.064;26.178;2023-07-31T14:10:34;2.90;;;1.88;;
64225;SDS011;50545;56.064;26.178;2023-07-31T14:13:02;2.15;;;1.80;;
64225;SDS011;50545;56.064;26.178;2023-07-31T14:15:29;2.72;;;2.00;;
64225;SDS011;50545;56.064;26.178;2023-07-31T14:17:58;2.67;;;1.90;;
64225;SDS011;50545;56.064;26.178;2023-07-31T14:20:28;3.00;;;2.15;;
64225;SDS011;50545;56.064;26.178;2023-07-31T14:22:56;3.42;;;2.10;;
64225;SDS011;50545;56.064;26.178;2023-07-31T14:25:24;3.72;;;2.15;;
64225;SDS011;50545;56.064;26.178;2023-07-31T14:27:51;2.65;;;1.65;;
64225;SDS011;50545;56.064;26.178;2023-07-31T14:30:19;3.38;;;1.90;;
64225;SDS011;50545;56.064;26.178;2023-07-31T14:32:47;3.50;;;2.00;;
64225;SDS011;50545;56.064;26.178;2023-07-31T14:35:14;2.00;;;1.80;;
64225;SDS011;50545;56.064;26.178;2023-07-31T14:37:43;2.72;;;1.90;;
64225;SDS011;50545;56.064;26.178;2023-07-31T14:40:11;2.25;;;1.90;;
64225;SDS011;50545;56.064;26.178;2023-07-31T14:42:39;2.03;;;1.75;;
64225;SDS011;50545;56.064;26.178;2023-07-31T14:45:07;2.53;;;1.77;;
64225;SDS011;50545;56.064;26.178;2023-07-31T14:47:35;3.35;;;2.05;;
64225;SDS011;50545;56.064;26.178;2023-07-31T14:50:03;2.53;;;1.80;;
64225;SDS011;50545;56.064;26.178;2023-07-31T14:52:31;3.97;;;1.77;;
64225;SDS011;50545;56.064;26.178;2023-07-31T14:54:59;2.65;;;1.80;;
64225;SDS011;50545;56.064;26.178;2023-07-31T14:57:27;2.78;;;1.90;;